• Join FlightAware (Why Join?)
  • Login
  • US Flag 
09:57AM EDT


 

Airport Tracker/Info


-or-


 

Live Flight TrackerFlight Track Log ✈ SWA2166 ✈ 08-Apr-2013 ✈ KMSY - KMDW

Flight Track Log - Related Links

Times and Time Zones

All times are in EDT time to prevent confusion due to time zone crossing. See the SWA2166 flight status page for this flight to view local times or setup timezone preferences in your user account.

Time Position Orientation Groundspeed Altitude Reporting Facility
EDT Latitude Longitude Course Direction KTS MPH feet Rate Location/Type
07:56AM 29.9761 -90.2564 195° South 153 176 1,100  Level Houston Center
07:57AM 29.9447 -90.2658 195° South 160 184 2,500 2,160 Climbing Houston Center
07:58AM 29.8928 -90.2850 198° South 186 214 5,400 2,880 Climbing Houston Center
07:59AM 29.9369 -90.3511 308° West 255 293 8,400 2,760 Climbing Houston Center
08:00AM 30.0178 -90.3794 343° North 291 335 11,100 2,880 Climbing Houston Center
08:01AM 30.1081 -90.4119 343° North 326 375 14,400 3,240 Climbing Houston Center
08:02AM 30.2050 -90.4453 343° North 354 407 17,800 2,880 Climbing Houston Center
08:03AM 30.3058 -90.4767 345° North 368 423 20,300 2,340 Climbing Houston Center
08:04AM 30.4183 -90.4864 356° North 407 468 22,600 2,220 Climbing Houston Center
08:05AM 30.5372 -90.4783 North 422 486 24,900 2,100 Climbing Houston Center
08:06AM 30.6583 -90.4708 North 432 497 27,000 1,860 Climbing Houston Center
08:07AM 30.7828 -90.4633 North 442 509 28,800 1,680 Climbing Houston Center
08:08AM 30.9114 -90.4544 North 455 524 30,500 1,740 Climbing Houston Center
08:09AM 31.0406 -90.4461 North 462 532 32,400 1,800 Climbing Houston Center
08:10AM 31.1694 -90.4378 North 463 533 34,300 1,860 Climbing Houston Center
08:11AM 31.2939 -90.4286 North 451 519 36,300 1,560 Climbing Houston Center
08:12AM 31.4417 -90.4194 North 444 511 37,500 1,080 Climbing Houston Center
08:13AM 31.5656 -90.4103 North 445 512 38,600 720 Climbing Houston Center
08:14AM 31.6892 -90.4019 North 445 512 39,000 180 Climbing Houston Center
08:15AM 31.8119 -90.3953 North 443 510 39,000  Level Houston Center
08:16AM 31.9142 -90.3867 North 440 506 39,000  Level Memphis Center
08:17AM 32.0353 -90.3794 North 440 506 39,000  Level Memphis Center
08:18AM 32.1583 -90.3672 North 440 506 39,000  Level Memphis Center
08:19AM 32.2794 -90.3597 North 440 506 39,000  Level Memphis Center
08:20AM 32.3983 -90.3525 North 440 506 39,000  Level Memphis Center
08:21AM 32.5194 -90.3450 North 440 506 39,000  Level Memphis Center
08:22AM 32.6406 -90.3375 North 440 506 39,000  Level Memphis Center
08:23AM 32.7597 -90.3275 North 435 501 39,000  Level Memphis Center
08:24AM 32.8786 -90.3053 North 435 501 39,000  Level Memphis Center
08:25AM 32.9997 -90.2831 North 435 501 39,000  Level Memphis Center
08:26AM 33.1208 -90.2581 10° North 435 501 39,000  Level Memphis Center
08:27AM 33.2397 -90.2356 North 435 501 39,000  Level Memphis Center
08:28AM 33.3586 -90.2131 North 435 501 39,000  Level Memphis Center
08:29AM 33.4797 -90.1878 10° North 435 501 39,000  Level Memphis Center
08:30AM 33.5986 -90.1653 North 429 494 39,000  Level Memphis Center
08:31AM 33.7175 -90.1425 North 429 494 39,000  Level Memphis Center
08:32AM 33.8344 -90.1197 North 429 494 39,000  Level Memphis Center
08:33AM 33.9533 -90.0967 North 429 494 39,000  Level Memphis Center
08:34AM 34.0722 -90.0714 10° North 434 499 39,000  Level Memphis Center
08:35AM 34.1953 -90.0458 10° North 434 499 39,000  Level Memphis Center
08:36AM 34.3142 -90.0228 North 428 493 39,000  Level Memphis Center
08:37AM 34.4331 -90.0019 North 428 493 39,000  Level Memphis Center
08:38AM 34.5561 -89.9764 10° North 428 493 39,000  Level Memphis Center
08:39AM 34.6750 -89.9531 North 428 493 39,000  Level Memphis Center
08:40AM 34.7833 -89.9347 North 428 493 39,000  Level Memphis Center
08:41AM 34.9064 -89.9064 11° North 445 512 39,000  Level Memphis Center
08:42AM 35.0419 -89.8903 North 450 518 39,000  Level Memphis Center
08:43AM 35.1628 -89.8847 North 432 497 39,000  Level Memphis Center
08:44AM 35.2817 -89.8789 North 427 491 39,000  Level Memphis Center
08:45AM 35.4006 -89.8756 North 419 482 39,000  Level Memphis Center
08:46AM 35.5217 -89.8697 North 424 488 39,000  Level Memphis Center
08:47AM 35.6383 -89.8642 North 418 481 39,000  Level Memphis Center
08:48AM 35.7489 -89.8608 North 413 475 39,000  Level Memphis Center
08:49AM 35.8553 -89.8603 360° North 413 475 39,000  Level Memphis Center
08:50AM 35.9742 -89.8542 North 420 483 39,000  Level Memphis Center
08:51AM 36.0950 -89.8483 North 425 489 39,000  Level Memphis Center
08:52AM 36.2139 -89.8425 North 425 489 39,000  Level Memphis Center
08:53AM 36.3347 -89.8417 360° North 425 489 39,000  Level Memphis Center
08:54AM 36.4536 -89.8358 North 420 483 39,000  Level Memphis Center
08:55AM 36.5722 -89.8297 North 420 483 39,000  Level Memphis Center
08:56AM 36.6889 -89.8264 North 420 483 39,000  Level Memphis Center
08:58AM 36.9267 -89.8094 North 423 487 39,000  Level Kansas City Center
08:59AM 37.0453 -89.8044 North 424 488 39,000  Level Kansas City Center
09:00AM 37.1636 -89.7992 North 424 488 39,000  Level Kansas City Center
09:01AM 37.2833 -89.7939 North 427 491 39,000  Level Kansas City Center
09:02AM 37.4042 -89.7897 North 430 495 39,000  Level Kansas City Center
09:03AM 37.5244 -89.7833 North 432 497 39,000  Level Kansas City Center
09:04AM 37.6542 -89.7786 North 434 499 39,000  Level Kansas City Center
09:05AM 37.7747 -89.7739 North 434 499 39,000  Level Kansas City Center
09:06AM 37.8961 -89.7669 North 436 502 39,000  Level Kansas City Center
09:07AM 38.0156 -89.7611 North 433 498 39,000  Level Kansas City Center
09:08AM 38.1592 -89.7556 North 432 497 39,000  Level Kansas City Center
09:09AM 38.2789 -89.7503 North 432 497 39,000  Level Kansas City Center
09:10AM 38.3978 -89.7439 North 432 497 39,000  Level Kansas City Center
09:11AM 38.5194 -89.7386 North 437 503 39,000 -180 Level Kansas City Center
09:12AM 38.6394 -89.7333 North 435 501 38,700 -660 Descending Kansas City Center
09:13AM 38.7597 -89.7267 North 436 502 37,700 -960 Descending Kansas City Center
09:14AM 38.8786 -89.7206 North 433 498 36,800 -1,080 Descending Kansas City Center
09:15AM 39.0239 -89.7142 North 437 503 35,600 -1,080 Descending Kansas City Center
09:16AM 39.1478 -89.7089 North 445 512 34,700 -960 Descending Kansas City Center
09:17AM 39.2711 -89.7033 North 446 513 33,700 -1,020 Descending Kansas City Center
09:18AM 39.3939 -89.6983 North 444 511 32,600 -1,020 Descending Kansas City Center
09:19AM 39.5147 -89.6914 North 439 505 31,700 -900 Descending Kansas City Center
09:20AM 39.6425 -89.6853 North 454 522 30,800 -1,020 Descending Kansas City Center
09:21AM 39.7853 -89.6786 North 459 528 29,700 -900 Descending Kansas City Center
09:22AM 39.9044 -89.6172 22° Northeast 471 542 29,000 -480 Descending Kansas City Center
09:23AM 39.9686 -89.5567 36° Northeast 484 557 29,000 -660 Level Chicago Center
09:24AM 40.0764 -89.4525 36° Northeast 486 559 28,000 -1,020 Descending Chicago Center
09:25AM 40.1836 -89.3494 36° Northeast 483 556 27,000 -1,140 Descending Chicago Center
09:26AM 40.2903 -89.2472 36° Northeast 481 554 25,700 -1,980 Descending Chicago Center
09:27AM 40.4150 -89.1281 36° Northeast 466 536 23,000 -2,040 Descending Chicago Center
09:28AM 40.5139 -89.0322 36° Northeast 450 518 21,500 -1,260 Descending Chicago Center
09:29AM 40.6086 -88.9406 36° Northeast 429 494 20,500 -1,020 Descending Chicago Center
09:30AM 40.7100 -88.8414 37° Northeast 423 487 19,500 -1,500 Descending Chicago Center
09:31AM 40.8078 -88.7700 29° Northeast 402 463 17,500 -1,680 Descending Chicago Center
09:32AM 40.9036 -88.7117 25° Northeast 382 440 16,100 -2,040 Descending Chicago Center
09:33AM 40.9947 -88.6578 24° Northeast 364 419 13,400 -2,400 Descending Chicago Center
09:34AM 41.0853 -88.5994 26° Northeast 363 418 11,300 -1,860 Descending Chicago Center
09:35AM 41.1725 -88.5475 24° Northeast 352 405 9,700 -1,560 Descending Chicago Center
09:36AM 41.2739 -88.4858 25° Northeast 337 388 8,100 -1,500 Descending Chicago Center
09:37AM 41.3531 -88.4369 25° Northeast 319 367 6,700 -1,020 Descending Chicago Center
09:38AM 41.4133 -88.3511 47° Northeast 323 372 6,000 -360 Descending Chicago Center
09:39AM 41.4667 -88.2550 53° Northeast 322 371 6,000 -480 Level Chicago Center
09:40AM 41.5150 -88.1683 53° Northeast 294 338 5,100 -960 Descending Chicago Center
09:41AM 41.5622 -88.0828 54° Northeast 285 328 4,100 -540 Descending Chicago Center
09:42AM 41.6081 -88.0000 53° Northeast 280 322 4,000 -60 Descending Chicago Center
09:43AM 41.6519 -87.9208 53° Northeast 272 313 4,000 -780 Level Chicago Center
09:44AM 41.7000 -87.8500 48° Northeast 281 323 2,700 -1,320 Descending Chicago TRACON
09:45AM 41.7500 -87.8000 37° Northeast 249 287 1,800 -660 Descending Chicago TRACON
09:46AM 41.8000 -87.8333 334° Northwest 159 183 1,400 -240 Descending Chicago TRACON
09:47AM 41.8167 -87.8000 56° Northeast 141 162 1,400  Level Chicago TRACON